Featured Flight

MET995 - Kuala Lumpur International Airport to Hong Kong

Airbus A330-243
787MT
3 hrs 30 mins
1375 nm
Scheduled - M | TU | TH

Bid/PiRep Status

Bid was submitted on Jan 02 2017.

PiRep # 74582: Approved by Dave Nichols on January 3rd, 2017 5:15 UTC

Departure

Departing from
Kuala Lumpur International Airport (KUL)
Departure gate
Ramp
Scheduled Departure
GMT 0830
Local 1630
METAR WMKK 170200Z 36003KT 9999 FEW017CB BKN280 29/24 Q1010 NOSIG
TAF TAF WMKK 162300Z 1700/1806 35005KT 9999 FEW017CB SCT140 BKN280 TEMPO 1706/1710 4000 TSRA FEW015CB SCT018
  • No charts available

Arrival

Arriving at
Hong Kong (HKG)
Arrival gate
Ramp
Scheduled Arrival
GMT 1200
Local 2000
METAR VHHH 170230Z 10011KT 9999 FEW026 SCT030 20/12 Q1022 NOSIG
TAF TAF VHHH 162300Z 1700/1806 07010KT 9000 FEW020 SCT030 TX21/1706Z TX22/1806Z TN18/1723Z

Route Map

Planning Resources

PIBOS.A M763 ENREP L642 EPDOS ACORN DUMOL1A
VKL G334 VPT RAXIM M771 CH
VKR R208 IGARI M765 DAGAG M771 DULOP CARSO V551 BETTY BETY2A
Route:
OFP Layout:
Units:
Detailed Navlog:
ETOPS Planning:
Plan Stepclimbs:
Runway Analysis:
Include NOTAMS:
FIR NOTAMS:
Flight Maps:

Return Flights

MET994
Airbus A330-243
0330 GMT

Popularity

Hub Current Bids PiReps this month Total PiReps
KMCI 0 1 2
KLAX 0 0 2
KBOS 0 0 0